Aérodrome :
LOGIN :

S'inscrire | Disclaimer

   EN    FR    IT 

 










Légende :    VFR   VFR Marginal   IFR   IFR Intensif   IFR Très Intensif
Visi : 
Plafond : 
>= 8 km
>= 3000ft
5 à 8 km
1000 à 3000 ft
1500m à 5 km
500 à 1000 ft
800 à 1500m
200 à 500 ft
< 800m
< 200 ft
Symboles :   Orages  Brouillard  Fortes neiges  Fortes précipitations  Vent > 20 kt
SIGMETs :   Divers  Orages  Givrage  Turbulence  Onde Orograph.  Cendres Volcan.







- Altitude de l'aérodrome : 412 ft
- Code IATA : ORE
- Voir les cartes d'approche


LFOJ - Orleans

DERNIER METAR :
  • 221000Z AUTO 20009KT 3700 -SNRA BR OVC005 01/M00 Q1007 TEMPO 1200 SN

METARs EXPIRÉS :
  • 220930Z AUTO 19009KT 3200 -SNRA BR OVC005 00/M01 Q1007 TEMPO 1200 SN
  • 220900Z AUTO 19011KT 4100 -RA BR BKN006 OVC017 00/M01 Q1007 TEMPO 1200 SN
  • 220830Z AUTO 19011KT 3500 -FZRA BR BKN006 OVC013 M00/M01 Q1008 TEMPO 1200 SN
  • 220800Z AUTO 19009KT 3500 BR BKN007 BKN028 BKN049 M01/M02 Q1008 TEMPO 1200 SN OVC003
  • 220730Z AUTO 18010KT 4000 BR FEW010 BKN024 BKN033 M01/M02 Q1009 TEMPO 1200 SN OVC003

TAF AMD TAF LFOJ
Valide du 22 à 09h jusqu'au 23 à 09h UTC


220820Z 2209/2309 19010KT 3500 BR BKN007 BKN012
TEMPO 2209/2212 1200 SN OVC005
PROB40
TEMPO 2209/2211 -FZRA
BECMG 2212/2214 8000 NSW BKN015
TEMPO 2221/2307 1500 SHRASN BKN008 SCT020CB
Pas de NOTAMs connus pour ce terrain.



MET'MAP, la Météo Aéronautique d'un coup d'oeil ! - Copyright ORBIFLY Décembre 2007 - Disclaimer

ORBIFLY MET'MAP TEAM :

Programmation & Développement : Alexandra Zaïnal
Conception & Développement : Baudouin d'Aumeries
Co-Programmation & Développement : Marc-Olivier Méhu
Soutien technique & logistique : Manuel Goepfert

Contact : metmap@orbifly.com




SOURCES & CREDITS :

   NOAA